Time;durP1;ratioP1;P1;durP2;ratioP2;P2;SDS_P1;SDS_P2;PMS_P1;PMS_P2;Temp;Humidity;BMP_temperature;BMP_pressure;BME280_temperature;BME280_humidity;BME280_pressure;Samples;Min_cycle;Max_cycle;Signal;HPM_P1;HPM_P2
2023/02/17 00:00:58;;;;;;;32.37;14.93;;;;;;;17.20;100.00;101777.53;5098057;28;20276;-50
2023/02/17 00:03:24;;;;;;;24.88;12.65;;;;;;;16.86;100.00;101779.56;5095132;28;20286;-50
2023/02/17 00:05:50;;;;;;;25.38;13.48;;;;;;;16.94;100.00;101779.31;5098465;28;20092;-54
2023/02/17 00:08:15;;;;;;;25.65;13.13;;;;;;;17.59;100.00;101791.00;5104668;28;20036;-54
2023/02/17 00:10:41;;;;;;;28.13;12.87;;;;;;;17.99;100.00;101785.28;5086115;28;20053;-50
2023/02/17 00:13:06;;;;;;;26.63;13.20;;;;;;;17.11;100.00;101789.66;5105830;28;20032;-50
2023/02/17 00:15:31;;;;;;;27.27;13.57;;;;;;;17.32;100.00;101773.13;5103500;28;20044;-49
2023/02/17 00:17:57;;;;;;;23.77;12.13;;;;;;;17.77;100.00;101782.16;5102194;28;20063;-52
2023/02/17 00:20:23;;;;;;;23.10;11.85;;;;;;;16.96;100.00;101787.22;5106312;28;20032;-53
2023/02/17 00:22:48;;;;;;;23.58;13.00;;;;;;;17.88;100.00;101772.50;5106538;28;20032;-55
2023/02/17 00:25:14;;;;;;;20.92;11.57;;;;;;;18.26;100.00;101773.41;5105618;28;20070;-56
2023/02/17 00:27:39;;;;;;;25.10;12.87;;;;;;;17.39;100.00;101783.84;5105167;28;20025;-54
2023/02/17 00:30:06;;;;;;;20.60;11.70;;;;;;;18.26;100.00;101773.41;5091460;28;20028;-53
2023/02/17 00:32:31;;;;;;;22.40;11.65;;;;;;;17.31;100.00;101754.41;5106485;28;21550;-50
2023/02/17 00:34:57;;;;;;;21.80;11.97;;;;;;;17.49;100.00;101754.47;5071041;28;20045;-52
2023/02/17 00:37:24;;;;;;;18.05;10.05;;;;;;;17.59;100.00;101748.59;5058734;28;20030;-54
2023/02/17 00:39:50;;;;;;;18.37;10.03;;;;;;;17.69;100.00;101760.78;5064500;28;20092;-50
2023/02/17 00:42:17;;;;;;;25.20;11.60;;;;;;;17.97;100.00;101759.47;5064671;28;20368;-51
2023/02/17 00:44:43;;;;;;;19.35;11.15;;;;;;;17.96;100.00;101758.66;5054936;28;20386;-51
2023/02/17 00:47:08;;;;;;;16.80;9.23;;;;;;;17.11;100.00;101751.84;5061992;28;20041;-51
2023/02/17 00:49:34;;;;;;;20.30;11.20;;;;;;;17.86;100.00;101764.59;5067622;28;20083;-53
2023/02/17 00:52:03;;;;;;;21.08;11.30;;;;;;;17.83;100.00;101751.50;5065307;28;20026;-52
2023/02/17 00:54:31;;;;;;;20.53;12.10;;;;;;;17.55;100.00;101752.78;5064306;28;20037;-49
2023/02/17 00:56:57;;;;;;;23.80;12.30;;;;;;;17.26;100.00;101762.34;5065794;28;20285;-53
2023/02/17 00:59:23;;;;;;;24.52;11.55;;;;;;;17.44;100.00;101757.03;5059485;28;20270;-52
2023/02/17 01:01:48;;;;;;;23.53;12.53;;;;;;;17.09;100.00;101762.03;5063196;28;20055;-49
2023/02/17 01:04:13;;;;;;;26.40;13.10;;;;;;;17.48;100.00;101751.97;5070259;28;20285;-52
2023/02/17 01:06:39;;;;;;;27.37;13.53;;;;;;;17.53;100.00;101749.47;5063187;28;20037;-51
2023/02/17 01:09:06;;;;;;;;;;;;;;;17.20;100.00;101739.69;5065220;28;20050;-50
2023/02/17 01:11:34;;;;;;;21.85;12.40;;;;;;;17.39;100.00;101742.50;5064646;28;20356;-52
2023/02/17 01:14:05;;;;;;;30.87;13.53;;;;;;;16.99;100.00;101739.00;5063090;28;20044;-51
2023/02/17 01:16:35;;;;;;;25.13;14.27;;;;;;;18.05;100.00;101757.34;5064166;28;20274;-50
2023/02/17 01:19:02;;;;;;;28.87;13.73;;;;;;;18.11;100.00;101738.59;5064818;28;20297;-55
2023/02/17 01:21:29;;;;;;;29.03;14.97;;;;;;;17.55;100.00;101751.94;5068094;28;20282;-53
2023/02/17 01:23:58;;;;;;;34.27;17.17;;;;;;;17.86;100.00;101733.97;5063610;28;20270;-50
2023/02/17 01:26:26;;;;;;;29.70;14.67;;;;;;;17.37;100.00;101734.59;5069109;28;20270;-52
2023/02/17 01:28:53;;;;;;;34.87;15.40;;;;;;;17.73;100.00;101746.59;5068772;28;20289;-51
2023/02/17 01:31:21;;;;;;;31.57;16.03;;;;;;;17.28;100.00;101746.72;5068673;28;20270;-54
2023/02/17 01:33:48;;;;;;;31.53;15.87;;;;;;;17.82;100.00;101751.72;5061123;28;20303;-54
2023/02/17 01:36:16;;;;;;;31.80;15.37;;;;;;;18.06;100.00;101760.91;5064960;28;20278;-48
2023/02/17 01:38:45;;;;;;;32.60;16.27;;;;;;;17.37;100.00;101744.59;5056475;28;20350;-50
2023/02/17 01:41:12;;;;;;;33.03;16.17;;;;;;;17.85;100.00;101746.69;5062355;28;20293;-50
2023/02/17 01:43:38;;;;;;;40.67;16.97;;;;;;;17.77;100.00;101741.56;5058569;28;20288;-49
2023/02/17 01:46:06;;;;;;;35.25;17.10;;;;;;;17.81;100.00;101748.19;5066891;28;20282;-50
2023/02/17 01:48:34;;;;;;;36.00;16.50;;;;;;;18.36;100.00;101730.38;5056192;28;20033;-50
2023/02/17 01:51:15;;;;;;;36.23;17.47;;;;;;;18.35;100.00;101739.56;5059710;28;20269;-53
2023/02/17 01:53:46;;;;;;;38.80;17.47;;;;;;;18.11;100.00;101744.81;5058719;28;20285;-49
2023/02/17 01:56:14;;;;;;;42.30;18.70;;;;;;;17.92;100.00;101752.88;5058053;28;20270;-52
2023/02/17 01:58:45;;;;;;;39.47;17.80;;;;;;;17.57;100.00;101755.25;5055960;28;20293;-55
2023/02/17 02:01:12;;;;;;;42.03;16.47;;;;;;;18.30;100.00;101742.13;5059085;28;20291;-53
2023/02/17 02:03:39;;;;;;;37.67;18.77;;;;;;;17.83;100.00;101743.38;5058038;28;20267;-51
2023/02/17 02:06:19;;;;;;;42.08;17.85;;;;;;;17.73;100.00;101745.75;5060541;28;20041;-50
2023/02/17 02:08:53;;;;;;;39.93;17.43;;;;;;;18.10;100.00;101742.31;5054997;28;20059;-52
2023/02/17 02:11:19;;;;;;;39.77;17.00;;;;;;;17.80;100.00;101745.69;5064761;28;20262;-49
2023/02/17 02:13:47;;;;;;;38.87;17.70;;;;;;;17.23;100.00;101739.25;5067577;28;20289;-50
2023/02/17 02:16:25;;;;;;;33.00;16.33;;;;;;;17.61;100.00;101741.06;5063440;28;20278;-54
2023/02/17 02:19:21;;;;;;;40.50;18.05;;;;;;;17.83;100.00;101735.28;5063166;28;20278;-51
2023/02/17 02:22:24;;;;;;;35.80;16.57;;;;;;;17.23;100.00;101733.84;5055987;28;20034;-50
2023/02/17 02:25:23;;;;;;;41.30;18.50;;;;;;;17.49;100.00;101715.78;5059841;28;20302;-51
2023/02/17 02:28:02;;;;;;;38.77;17.83;;;;;;;17.49;100.00;101702.25;5057998;28;20267;-53
2023/02/17 02:31:27;;;;;;;36.60;15.90;;;;;;;17.61;100.00;101697.78;5056826;28;20273;-54
2023/02/17 02:33:59;;;;;;;33.93;15.70;;;;;;;17.51;100.00;101691.22;5016533;28;20275;-47
2023/02/17 02:36:29;;;;;;;28.80;13.83;;;;;;;17.10;100.00;101690.72;5076325;28;20293;-52
2023/02/17 02:39:06;;;;;;;33.33;15.13;;;;;;;17.71;100.00;101681.06;5082003;28;20277;-49
2023/02/17 02:41:39;;;;;;;31.50;14.97;;;;;;;18.15;100.00;101664.81;5081784;28;20302;-50
2023/02/17 02:44:08;;;;;;;28.47;13.63;;;;;;;17.65;100.00;101663.03;5076672;28;20269;-50
2023/02/17 02:46:34;;;;;;;28.27;13.10;;;;;;;17.43;100.00;101668.84;5082563;28;20269;-50
2023/02/17 02:49:01;;;;;;;31.02;13.93;;;;;;;18.09;100.00;101676.53;5078299;28;20277;-51
2023/02/17 02:51:42;;;;;;;27.50;14.43;;;;;;;17.66;100.00;101685.47;5082234;28;20024;-52
2023/02/17 02:54:16;;;;;;;27.00;13.77;;;;;;;17.99;100.00;101676.19;5073590;28;20273;-53
2023/02/17 02:57:04;;;;;;;26.03;13.17;;;;;;;17.63;100.00;101674.06;5075195;28;20273;-55
2023/02/17 02:59:58;;;;;;;30.53;13.23;;;;;;;17.81;100.00;101685.13;5080619;28;20296;-50
2023/02/17 03:02:37;;;;;;;26.50;13.03;;;;;;;17.45;100.00;101666.75;5081425;28;20277;-55
2023/02/17 03:05:09;;;;;;;29.57;13.80;;;;;;;17.55;100.00;101660.84;5079087;28;20256;-50
2023/02/17 03:07:43;;;;;;;29.40;13.60;;;;;;;17.17;100.00;101653.66;5079411;28;20278;-52
2023/02/17 03:10:09;;;;;;;26.77;12.93;;;;;;;17.57;100.00;101679.53;5075276;28;20272;-51
2023/02/17 03:12:37;;;;;;;24.90;11.75;;;;;;;18.00;100.00;101656.22;5078482;28;20324;-52
2023/02/17 03:15:25;;;;;;;26.77;12.57;;;;;;;17.50;100.00;101668.75;5074640;28;20088;-48
2023/02/17 03:17:51;;;;;;;28.70;12.77;;;;;;;17.42;100.00;101666.34;5077772;28;20277;-53
2023/02/17 03:20:17;;;;;;;24.77;12.63;;;;;;;18.01;100.00;101661.41;5077242;28;20332;-53
2023/02/17 03:22:46;;;;;;;28.07;11.93;;;;;;;18.28;100.00;101663.00;5109426;28;20048;-48
2023/02/17 03:25:13;;;;;;;25.67;11.27;;;;;;;17.42;100.00;101663.63;5080825;28;20265;-51
2023/02/17 03:27:40;;;;;;;23.27;11.80;;;;;;;17.56;100.00;101654.38;5081369;28;20285;-52
2023/02/17 03:30:06;;;;;;;25.93;12.57;;;;;;;17.62;100.00;101658.88;5082912;28;20278;-53
2023/02/17 03:32:32;;;;;;;27.10;11.87;;;;;;;17.45;100.00;101660.50;5079600;28;20035;-52
2023/02/17 03:34:58;;;;;;;25.93;11.17;;;;;;;17.43;100.00;101674.25;5095138;28;20272;-52
2023/02/17 03:37:23;;;;;;;24.63;11.87;;;;;;;17.46;100.00;101649.47;5099485;28;20272;-53
2023/02/17 03:39:49;;;;;;;25.03;11.00;;;;;;;18.03;100.00;101648.50;5101164;28;20260;-53
2023/02/17 03:42:14;;;;;;;19.85;10.25;;;;;;;17.36;100.00;101653.72;5102041;28;20109;-49
2023/02/17 03:44:39;;;;;;;23.65;11.57;;;;;;;17.30;100.00;101648.16;5106529;28;20055;-51
2023/02/17 03:47:06;;;;;;;23.13;10.50;;;;;;;17.30;100.00;101626.53;5105160;28;20043;-48
2023/02/17 03:49:31;;;;;;;26.45;10.52;;;;;;;17.70;100.00;101630.72;5104441;28;20040;-49
2023/02/17 03:51:58;;;;;;;21.87;10.53;;;;;;;17.10;100.00;101645.59;5087332;28;20036;-50
2023/02/17 03:54:25;;;;;;;19.63;10.90;;;;;;;17.44;100.00;101623.69;5104166;28;20036;-51
2023/02/17 03:56:50;;;;;;;21.42;10.35;;;;;;;17.34;100.00;101627.72;5101902;28;20269;-50
2023/02/17 03:59:15;;;;;;;25.53;11.03;;;;;;;17.38;100.00;101616.47;5108077;28;20032;-52
2023/02/17 04:01:41;;;;;;;21.85;10.00;;;;;;;16.98;100.00;101621.16;5094769;28;20055;-54
2023/02/17 04:04:06;;;;;;;21.60;10.20;;;;;;;17.58;100.00;101627.94;5106008;28;20048;-52
2023/02/17 04:06:32;;;;;;;22.23;10.95;;;;;;;17.00;100.00;101632.56;5104475;28;20063;-50
2023/02/17 04:08:58;;;;;;;19.45;9.65;;;;;;;16.82;100.00;101636.00;5105586;28;20109;-50
2023/02/17 04:11:24;;;;;;;24.93;10.23;;;;;;;17.33;100.00;101631.47;5106149;28;20032;-52
2023/02/17 04:13:49;;;;;;;20.77;9.98;;;;;;;17.06;100.00;101639.78;5098724;28;20028;-49
2023/02/17 04:16:15;;;;;;;23.00;10.80;;;;;;;17.14;100.00;101641.41;5101312;28;20065;-48
2023/02/17 04:18:40;;;;;;;24.35;10.30;;;;;;;16.67;100.00;101641.69;5108011;28;20039;-55
2023/02/17 04:21:06;;;;;;;25.00;11.93;;;;;;;16.93;100.00;101639.88;5100273;28;20104;-51
2023/02/17 04:23:34;;;;;;;20.83;10.18;;;;;;;17.32;100.00;101656.03;5103753;28;20024;-53
2023/02/17 04:26:00;;;;;;;25.17;11.37;;;;;;;17.59;100.00;101635.00;5105965;28;20031;-51
2023/02/17 04:28:26;;;;;;;22.83;11.20;;;;;;;17.20;100.00;101629.72;5106171;28;20291;-49
2023/02/17 04:30:51;;;;;;;27.40;10.87;;;;;;;17.00;100.00;101643.38;5103475;28;20055;-55
2023/02/17 04:33:17;;;;;;;28.17;12.73;;;;;;;17.39;100.00;101643.28;5101491;28;20275;-51
2023/02/17 04:35:43;;;;;;;28.08;11.55;;;;;;;17.48;100.00;101638.41;5103010;28;20115;-49
2023/02/17 04:38:09;;;;;;;29.42;12.35;;;;;;;17.33;100.00;101663.94;5082635;28;20033;-53
2023/02/17 04:40:35;;;;;;;25.35;11.05;;;;;;;17.91;100.00;101645.69;5101936;28;20110;-52
2023/02/17 04:43:01;;;;;;;25.52;11.43;;;;;;;17.72;100.00;101654.81;5102391;28;20031;-52
2023/02/17 04:45:27;;;;;;;24.52;11.98;;;;;;;17.53;100.00;101629.63;5096406;28;20033;-50
2023/02/17 04:47:53;;;;;;;27.17;11.95;;;;;;;17.92;100.00;101641.91;5095776;28;20058;-52
2023/02/17 04:50:19;;;;;;;28.17;11.50;;;;;;;17.26;100.00;101630.69;5095168;28;20028;-50
2023/02/17 04:52:45;;;;;;;25.70;11.15;;;;;;;17.90;100.00;101619.66;5101176;28;20276;-54
2023/02/17 04:55:10;;;;;;;25.20;10.20;;;;;;;17.26;100.00;101641.50;5100138;28;20047;-52
2023/02/17 04:57:36;;;;;;;26.60;12.07;;;;;;;17.28;100.00;101635.91;5103089;28;20103;-54
2023/02/17 05:00:03;;;;;;;27.65;12.70;;;;;;;17.79;100.00;101639.38;5094719;28;20029;-54
2023/02/17 05:02:29;;;;;;;24.40;12.27;;;;;;;17.54;100.00;101624.03;5097301;28;20032;-50
2023/02/17 05:04:55;;;;;;;29.33;13.33;;;;;;;17.62;100.00;101612.06;5101609;28;20352;-51
2023/02/17 05:07:21;;;;;;;25.77;12.68;;;;;;;17.30;100.00;101631.09;5096765;28;20028;-52
2023/02/17 05:09:46;;;;;;;33.40;15.23;;;;;;;17.98;100.00;101623.13;5099872;28;20090;-52
2023/02/17 05:12:12;;;;;;;29.10;13.33;;;;;;;17.52;100.00;101620.69;5096456;28;20038;-53
2023/02/17 05:14:37;;;;;;;26.53;12.83;;;;;;;17.23;100.00;101630.34;5096213;28;20086;-50
2023/02/17 05:17:03;;;;;;;31.88;12.70;;;;;;;17.38;100.00;101611.88;5095461;28;20024;-49
2023/02/17 05:19:28;;;;;;;28.77;13.00;;;;;;;17.26;100.00;101628.00;5094969;28;20060;-54
2023/02/17 05:21:54;;;;;;;25.93;11.80;;;;;;;17.49;100.00;101650.88;5095034;28;20051;-56
2023/02/17 05:24:19;;;;;;;27.48;13.00;;;;;;;17.92;100.00;101644.63;5097532;28;20036;-56
2023/02/17 05:26:45;;;;;;;31.50;13.77;;;;;;;17.32;100.00;101643.34;5101437;28;20063;-51
2023/02/17 05:29:10;;;;;;;27.43;12.13;;;;;;;17.43;100.00;101633.69;5097776;28;20328;-54
2023/02/17 05:31:36;;;;;;;30.08;13.15;;;;;;;17.51;100.00;101637.97;5101164;28;20028;-52
2023/02/17 05:34:01;;;;;;;31.70;12.20;;;;;;;17.66;100.00;101640.34;5064064;28;1033518;-53
2023/02/17 05:36:27;;;;;;;28.98;12.95;;;;;;;17.65;100.00;101638.69;5096791;28;20025;-50
2023/02/17 05:38:53;;;;;;;32.90;13.68;;;;;;;17.59;100.00;101656.63;5100581;28;20067;-51
2023/02/17 05:41:19;;;;;;;22.77;12.30;;;;;;;17.23;100.00;101652.75;5097564;28;20052;-52
2023/02/17 05:43:45;;;;;;;30.63;12.67;;;;;;;17.42;100.00;101625.78;5082766;28;20269;-53
2023/02/17 05:46:11;;;;;;;25.20;11.90;;;;;;;17.70;100.00;101619.91;5099144;28;20268;-51
2023/02/17 05:48:37;;;;;;;29.23;11.15;;;;;;;17.57;100.00;101637.09;5097096;28;20343;-54
2023/02/17 05:51:02;;;;;;;22.40;12.57;;;;;;;17.49;100.00;101626.53;5098867;28;20090;-49
2023/02/17 05:53:28;;;;;;;25.48;12.05;;;;;;;17.37;100.00;101617.53;5100341;28;20265;-52
2023/02/17 05:55:54;;;;;;;30.60;12.67;;;;;;;17.13;100.00;101636.22;5098755;28;20052;-49
2023/02/17 05:58:19;;;;;;;30.70;12.43;;;;;;;17.40;100.00;101614.38;5101475;28;20273;-53
2023/02/17 06:00:46;;;;;;;26.58;13.23;;;;;;;16.96;100.00;101631.31;5099660;28;20344;-50
2023/02/17 06:03:12;;;;;;;25.30;12.27;;;;;;;17.05;100.00;101640.03;5098743;28;20036;-47
2023/02/17 06:05:38;;;;;;;28.43;13.53;;;;;;;17.66;100.00;101624.13;5096195;28;20048;-50
2023/02/17 06:08:05;;;;;;;30.13;15.23;;;;;;;17.44;100.00;101624.53;5095755;28;20265;-51
2023/02/17 06:10:31;;;;;;;29.77;12.63;;;;;;;17.04;100.00;101638.38;5099919;28;20039;-51
2023/02/17 06:12:57;;;;;;;32.20;13.93;;;;;;;17.38;100.00;101611.06;5099739;28;20264;-51
2023/02/17 06:15:23;;;;;;;36.77;14.93;;;;;;;17.36;100.00;101613.97;5097241;28;20035;-46
2023/02/17 06:17:48;;;;;;;34.67;16.43;;;;;;;17.14;100.00;101627.06;5096289;28;20265;-50
2023/02/17 06:20:14;;;;;;;36.08;17.10;;;;;;;17.14;100.00;101621.66;5099007;28;20100;-53
2023/02/17 06:22:41;;;;;;;34.63;13.98;;;;;;;17.13;100.00;101625.41;5097458;28;20036;-53
2023/02/17 06:25:07;;;;;;;46.70;18.07;;;;;;;17.67;100.00;101614.94;5093620;28;20052;-51
2023/02/17 06:27:33;;;;;;;36.38;15.85;;;;;;;17.22;100.00;101624.09;5096256;28;20028;-53
2023/02/17 06:29:58;;;;;;;46.30;16.52;;;;;;;17.13;100.00;101622.72;5099289;28;20062;-51
2023/02/17 06:32:24;;;;;;;36.67;15.23;;;;;;;17.68;100.00;101616.59;5098034;28;20024;-53
2023/02/17 06:34:50;;;;;;;37.22;15.43;;;;;;;16.93;100.00;101631.75;5061955;28;20072;-50
2023/02/17 06:37:15;;;;;;;32.22;14.48;;;;;;;17.04;100.00;101604.06;5055171;28;20044;-51
2023/02/17 06:39:41;;;;;;;37.00;14.60;;;;;;;17.17;100.00;101602.31;5062695;28;20105;-53
2023/02/17 06:42:07;;;;;;;29.67;13.37;;;;;;;17.10;100.00;101598.84;5063085;28;20041;-50
2023/02/17 06:44:32;;;;;;;33.87;16.33;;;;;;;17.58;100.00;101610.84;5061839;28;20397;-50
2023/02/17 06:46:58;;;;;;;34.97;16.00;;;;;;;17.15;100.00;101632.25;5052805;28;20123;-55
2023/02/17 06:49:24;;;;;;;34.13;14.87;;;;;;;17.23;100.00;101598.72;5055399;28;20034;-54
2023/02/17 06:51:50;;;;;;;39.92;16.42;;;;;;;17.30;100.00;101594.09;5055784;28;20025;-49
2023/02/17 06:54:15;;;;;;;35.45;13.90;;;;;;;17.37;100.00;101633.75;5057229;28;20044;-57
2023/02/17 06:56:41;;;;;;;30.25;14.55;;;;;;;17.01;100.00;101596.38;5056341;28;20048;-52
2023/02/17 06:59:07;;;;;;;38.13;13.95;;;;;;;17.45;100.00;101598.31;5054638;28;20100;-51
2023/02/17 07:01:33;;;;;;;38.45;15.32;;;;;;;17.69;100.00;101604.72;5057419;28;20029;-50
2023/02/17 07:03:58;;;;;;;27.67;12.65;;;;;;;17.42;100.00;101590.63;5056534;28;20060;-54
2023/02/17 07:06:25;;;;;;;29.25;12.98;;;;;;;17.53;100.00;101606.16;5057409;28;20045;-54
2023/02/17 07:08:51;;;;;;;30.77;13.60;;;;;;;17.32;100.00;101601.97;5056310;28;20033;-51
2023/02/17 07:11:17;;;;;;;34.80;14.95;;;;;;;17.39;100.00;101586.50;5054736;28;20025;-51
2023/02/17 07:13:43;;;;;;;33.05;13.02;;;;;;;17.45;100.00;101576.66;5058799;28;20029;-55
2023/02/17 07:16:11;;;;;;;31.30;11.80;;;;;;;17.29;100.00;101573.47;5058771;28;20072;-52
2023/02/17 07:18:36;;;;;;;32.93;13.13;;;;;;;17.32;100.00;101572.22;5056558;28;20132;-51
2023/02/17 07:21:04;;;;;;;25.65;13.43;;;;;;;17.82;100.00;101573.16;5055819;28;20278;-54
2023/02/17 07:23:30;;;;;;;26.27;13.10;;;;;;;17.92;100.00;101579.69;5052962;28;20045;-53
2023/02/17 07:26:01;;;;;;;26.35;12.43;;;;;;;17.39;100.00;101577.56;5061829;28;20266;-50
2023/02/17 07:28:27;;;;;;;23.93;11.20;;;;;;;17.05;100.00;101597.59;5058052;28;20030;-51
2023/02/17 07:30:52;;;;;;;24.10;12.33;;;;;;;17.38;100.00;101573.22;5056419;28;20284;-51
2023/02/17 07:33:18;;;;;;;21.73;10.90;;;;;;;17.38;100.00;101578.63;5052984;28;20282;-51
2023/02/17 07:35:43;;;;;;;24.20;11.73;;;;;;;18.04;100.00;101584.38;5096372;28;20048;-54
2023/02/17 07:38:09;;;;;;;26.95;11.55;;;;;;;18.11;100.00;101592.41;5095447;28;20048;-51
2023/02/17 07:40:34;;;;;;;21.83;11.27;;;;;;;17.56;100.00;101591.31;5097165;28;20036;-50
2023/02/17 07:43:00;;;;;;;20.57;11.03;;;;;;;17.98;100.00;101613.13;5091278;28;20041;-54
2023/02/17 07:45:25;;;;;;;22.53;10.83;;;;;;;18.29;100.00;101602.38;5059854;28;20040;-48
2023/02/17 07:47:50;;;;;;;19.57;9.80;;;;;;;18.26;100.00;101600.94;5091874;28;20036;-51
2023/02/17 07:50:16;;;;;;;22.00;10.13;;;;;;;18.82;100.00;101613.50;5096311;28;20037;-53
2023/02/17 07:52:41;;;;;;;26.55;11.35;;;;;;;18.01;100.00;101607.28;5096960;28;20029;-54
2023/02/17 07:55:07;;;;;;;18.13;9.85;;;;;;;18.37;100.00;101591.22;5097508;28;20033;-47
2023/02/17 07:57:33;;;;;;;20.60;9.88;;;;;;;18.29;100.00;101594.25;5095360;28;20032;-50
2023/02/17 07:59:58;;;;;;;20.43;9.37;;;;;;;17.94;100.00;101594.88;5097320;28;20033;-53
2023/02/17 08:02:24;;;;;;;19.43;10.10;;;;;;;18.44;100.00;101601.97;5093740;28;20040;-51
2023/02/17 08:04:51;;;;;;;20.83;11.35;;;;;;;18.12;100.00;101586.75;5092586;28;20100;-53
2023/02/17 08:07:16;;;;;;;20.47;11.87;;;;;;;18.37;100.00;101579.59;5093164;28;20037;-54
2023/02/17 08:15:10;;;;;;;20.73;9.87;;;;;;;18.41;100.00;101599.72;5097919;28;20276;-50
2023/02/17 08:17:36;;;;;;;18.77;9.73;;;;;;;18.37;100.00;101602.06;5093864;28;20500;-48
2023/02/17 08:20:03;;;;;;;19.30;10.52;;;;;;;19.02;100.00;101603.22;5093228;28;20036;-51
2023/02/17 08:22:28;;;;;;;19.08;9.65;;;;;;;18.38;100.00;101600.19;5097847;28;20074;-47
2023/02/17 08:24:54;;;;;;;21.02;10.93;;;;;;;18.60;100.00;101604.03;5097517;28;20728;-54
2023/02/17 08:27:20;;;;;;;14.82;8.48;;;;;;;18.08;100.00;101596.41;5097708;28;20043;-52
2023/02/17 08:29:45;;;;;;;18.33;9.93;;;;;;;18.57;100.00;101600.94;5103172;28;20044;-52
2023/02/17 08:32:12;;;;;;;16.40;8.70;;;;;;;18.59;100.00;101617.81;5098625;28;20029;-48
2023/02/17 08:34:37;;;;;;;17.23;9.57;;;;;;;18.52;100.00;101608.94;5097362;28;20060;-49
2023/02/17 08:37:04;;;;;;;18.92;8.73;;;;;;;18.36;100.00;101632.09;5098848;28;20284;-49
2023/02/17 08:39:31;;;;;;;14.23;8.33;;;;;;;18.75;100.00;101646.13;5099885;28;20048;-54
2023/02/17 08:41:56;;;;;;;;;;;;;;;18.30;100.00;101636.53;5101053;28;20285;-49
2023/02/17 08:44:23;;;;;;;13.87;7.47;;;;;;;18.35;100.00;101636.66;5102200;28;19923;-55
2023/02/17 08:46:50;;;;;;;17.60;8.88;;;;;;;18.34;100.00;101635.00;5103242;28;20028;-53
2023/02/17 08:49:18;;;;;;;15.20;7.87;;;;;;;18.51;100.00;101647.94;5097433;28;20047;-51
2023/02/17 08:51:44;;;;;;;14.60;8.00;;;;;;;18.51;100.00;101631.69;5103798;28;20275;-50
2023/02/17 08:54:10;;;;;;;15.98;8.38;;;;;;;18.67;100.00;101639.13;5096376;28;20273;-53
2023/02/17 08:56:37;;;;;;;13.60;7.50;;;;;;;17.83;100.00;101661.38;5096933;28;20035;-55
2023/02/17 08:59:05;;;;;;;12.50;7.87;;;;;;;18.54;100.00;101661.00;5094404;28;20067;-51
2023/02/17 09:01:31;;;;;;;13.87;7.53;;;;;;;18.41;100.00;101662.81;5097731;28;20356;-54
2023/02/17 09:03:58;;;;;;;10.45;6.32;;;;;;;18.11;100.00;101655.47;5097185;28;20272;-53
2023/02/17 09:06:38;;;;;;;13.27;7.80;;;;;;;18.98;100.00;101656.25;5098379;28;20040;-50
2023/02/17 09:09:06;;;;;;;14.27;8.03;;;;;;;18.91;100.00;101666.31;5099660;28;20321;-52
2023/02/17 09:11:31;;;;;;;16.63;7.60;;;;;;;18.47;100.00;101672.75;5100176;28;20359;-51
2023/02/17 09:13:56;;;;;;;13.20;7.53;;;;;;;18.62;100.00;101674.22;5099094;28;20293;-50
2023/02/17 09:16:23;;;;;;;17.05;8.13;;;;;;;18.51;100.00;101656.84;5101778;28;20028;-48
2023/02/17 09:18:53;;;;;;;13.90;7.00;;;;;;;18.20;100.00;101664.94;5099208;28;20032;-52
2023/02/17 09:21:19;;;;;;;13.63;7.03;;;;;;;18.65;100.00;101678.38;5095909;28;20032;-49
2023/02/17 09:23:46;;;;;;;18.92;7.25;;;;;;;18.25;100.00;101677.81;5101027;28;20268;-53
2023/02/17 09:26:13;;;;;;;14.50;6.85;;;;;;;18.64;100.00;101672.09;5095335;28;20067;-54
2023/02/17 09:28:39;;;;;;;13.60;6.63;;;;;;;18.00;100.00;101667.84;5100321;28;20062;-55
2023/02/17 09:31:19;;;;;;;10.50;6.28;;;;;;;17.89;100.00;101679.44;5097848;28;20269;-53
2023/02/17 09:33:46;;;;;;;11.93;6.43;;;;;;;18.09;100.00;101683.81;5097322;28;20053;-50
2023/02/17 09:36:14;;;;;;;12.53;5.70;;;;;;;18.05;100.00;101708.63;5099598;28;20278;-50
2023/02/17 09:38:40;;;;;;;10.57;6.30;;;;;;;18.32;100.00;101675.84;5099527;28;20287;-51
2023/02/17 09:41:17;;;;;;;14.68;6.53;;;;;;;18.41;100.00;101689.09;5084994;28;20371;-52
2023/02/17 09:43:43;;;;;;;12.45;5.97;;;;;;;18.48;100.00;101685.25;5099408;28;20032;-52
2023/02/17 09:46:18;;;;;;;15.18;7.38;;;;;;;18.95;100.00;101670.22;5098951;28;20062;-53
2023/02/17 09:48:46;;;;;;;10.57;6.17;;;;;;;17.99;100.00;101681.59;5098893;28;20036;-50
2023/02/17 09:51:22;;;;;;;15.10;6.63;;;;;;;17.94;100.00;101671.47;5098042;28;20264;-52
2023/02/17 09:53:55;;;;;;;10.93;5.75;;;;;;;18.48;100.00;101650.03;5098641;28;20272;-51
2023/02/17 09:56:29;;;;;;;10.37;5.53;;;;;;;18.71;100.00;101658.47;5097474;28;20047;-52
2023/02/17 09:58:59;;;;;;;12.53;6.97;;;;;;;18.30;100.00;101669.00;5097855;28;20277;-48
2023/02/17 10:01:31;;;;;;;10.87;5.67;;;;;;;18.28;100.00;101657.59;5079567;28;20301;-49
2023/02/17 10:04:06;;;;;;;10.70;6.03;;;;;;;18.32;100.00;101656.88;5100871;28;20281;-50
2023/02/17 10:06:46;;;;;;;10.20;5.90;;;;;;;18.23;100.00;101660.97;5094804;28;20328;-49
2023/02/17 10:09:15;;;;;;;13.60;5.80;;;;;;;18.20;100.00;101672.25;5096307;28;20429;-55
2023/02/17 10:12:01;;;;;;;13.47;6.07;;;;;;;18.76;100.00;101658.59;5102750;28;20258;-52
2023/02/17 10:14:39;;;;;;;10.90;5.50;;;;;;;18.19;100.00;101679.53;5095335;28;20269;-50
2023/02/17 10:17:17;;;;;;;8.80;5.60;;;;;;;18.23;100.00;101673.69;5097699;28;20265;-51
2023/02/17 10:19:53;;;;;;;11.47;5.63;;;;;;;18.37;100.00;101675.16;5094345;28;20304;-49
2023/02/17 10:22:20;;;;;;;10.90;6.40;;;;;;;18.34;100.00;101673.75;5096904;28;20320;-51
2023/02/17 10:24:46;;;;;;;8.53;4.97;;;;;;;18.82;100.00;101675.81;5098784;28;20265;-52
2023/02/17 10:27:41;;;;;;;11.20;5.35;;;;;;;18.46;100.00;101660.28;5097674;28;20337;-50
2023/02/17 10:30:19;;;;;;;15.17;6.10;;;;;;;18.62;100.00;101683.19;5097138;28;20040;-51
2023/02/17 10:33:15;;;;;;;11.97;5.40;;;;;;;18.40;100.00;101682.03;5094905;28;20277;-51
2023/02/17 10:35:59;;;;;;;11.17;5.37;;;;;;;18.59;100.00;101677.38;5096691;28;20281;-54
2023/02/17 10:38:49;;;;;;;12.80;5.80;;;;;;;18.80;100.00;101697.75;5081023;28;20292;-52
2023/02/17 10:41:20;;;;;;;15.63;6.40;;;;;;;18.67;100.00;101696.03;5100349;28;20285;-52
2023/02/17 10:43:47;;;;;;;12.40;6.83;;;;;;;19.06;100.00;101701.16;5097715;28;20277;-50
2023/02/17 10:46:17;;;;;;;13.70;6.40;;;;;;;19.09;100.00;101708.00;5098259;28;20272;-51
2023/02/17 10:48:48;;;;;;;12.70;6.30;;;;;;;18.10;100.00;101716.09;5095474;28;20281;-52
2023/02/17 10:51:19;;;;;;;13.37;6.33;;;;;;;18.29;100.00;101711.50;5097336;28;20272;-51
2023/02/17 10:53:50;;;;;;;14.63;7.27;;;;;;;18.96;100.00;101695.44;5098301;28;20269;-50
2023/02/17 10:56:53;;;;;;;11.27;6.47;;;;;;;18.99;100.00;101685.00;5095276;28;20340;-48
2023/02/17 10:59:25;;;;;;;13.20;6.63;;;;;;;18.75;100.00;101676.75;4995345;28;20291;-51
2023/02/17 11:01:50;;;;;;;12.30;5.40;;;;;;;18.38;100.00;101682.22;5080909;28;20292;-50
2023/02/17 11:04:15;;;;;;;15.97;6.70;;;;;;;18.81;100.00;101683.16;5100421;28;20269;-49
2023/02/17 11:06:44;;;;;;;13.30;6.63;;;;;;;19.18;100.00;101693.06;5100878;28;20044;-50
2023/02/17 11:09:17;;;;;;;20.37;7.27;;;;;;;18.72;100.00;101676.38;5093802;28;20032;-52
2023/02/17 11:11:53;;;;;;;10.93;6.53;;;;;;;18.44;100.00;101716.53;5100752;28;20318;-50
2023/02/17 11:14:24;;;;;;;13.52;6.88;;;;;;;18.71;100.00;101681.00;5098401;28;20292;-49
2023/02/17 11:16:59;;;;;;;14.57;5.93;;;;;;;18.58;100.00;101689.28;5093511;28;20062;-50